ΕΜΥ, Εθνική Μετεωρολογική Υπηρεσία - Δελτία Καιρού, Προγνώσεις

ΑΕΡΟΝΑΥΤΙΛΙΑ

GREEK AIRPORTS CODES

TAF LGST 192300Z 2000/2009 32012KT 9999 FEW015 BKN025=

EUROPEAN AIRPORTS CODES

LFPO 192300Z 28005KT 8000 SCT010 BKN033 06/06 Q1028 NOSIG=